createdAt,value
2024-04-30T00:00:10.564Z,18.41
2024-04-30T00:02:57.351Z,17.46
2024-04-30T00:05:04.540Z,16.92
2024-04-30T00:07:11.652Z,16.79
2024-04-30T00:09:18.547Z,18.15
2024-04-30T00:11:25.461Z,19.56
2024-04-30T00:13:32.487Z,20.16
2024-04-30T00:15:39.514Z,19.46
2024-04-30T00:17:46.933Z,18.44
2024-04-30T00:19:53.994Z,17.61
2024-04-30T00:22:00.944Z,16.98
2024-04-30T00:24:08.715Z,16.48
2024-04-30T00:26:15.653Z,16.43
2024-04-30T00:28:24.226Z,17.82
2024-04-30T00:30:31.107Z,19.22
2024-04-30T00:32:38.067Z,19.81
2024-04-30T00:34:45.115Z,19.21
2024-04-30T00:36:52.278Z,18.26
2024-04-30T00:38:59.126Z,17.45
2024-04-30T00:41:06.314Z,16.80
2024-04-30T00:43:13.227Z,16.28
2024-04-30T00:45:20.335Z,16.20
2024-04-30T00:47:27.522Z,17.59
2024-04-30T00:49:34.709Z,19.02
2024-04-30T00:51:41.807Z,19.67
2024-04-30T00:53:49.029Z,19.02
2024-04-30T00:55:55.908Z,18.03
2024-04-30T00:58:02.912Z,17.22
2024-04-30T01:00:11.322Z,16.56
2024-04-30T01:02:18.976Z,16.04
2024-04-30T01:04:25.968Z,15.98
2024-04-30T01:06:32.904Z,17.38
2024-04-30T01:08:39.749Z,18.78
2024-04-30T01:10:46.803Z,19.45
2024-04-30T01:12:54.972Z,18.81
2024-04-30T01:15:01.822Z,17.84
2024-04-30T01:17:08.892Z,17.02
2024-04-30T01:19:15.925Z,16.33
2024-04-30T01:21:22.867Z,15.78
2024-04-30T01:23:29.746Z,15.69
2024-04-30T01:25:36.722Z,17.09
2024-04-30T01:27:43.634Z,18.48
2024-04-30T01:29:50.570Z,19.17
2024-04-30T01:31:58.397Z,18.52
2024-04-30T01:34:05.561Z,17.55
2024-04-30T01:36:12.470Z,16.70
2024-04-30T01:38:19.408Z,16.02
2024-04-30T01:40:26.309Z,15.49
2024-04-30T01:42:33.168Z,15.42
2024-04-30T01:44:40.053Z,16.82
2024-04-30T01:46:46.934Z,18.16
2024-04-30T01:48:53.764Z,18.83
2024-04-30T01:51:00.656Z,18.18
2024-04-30T01:53:07.723Z,17.21
2024-04-30T01:55:14.760Z,16.38
2024-04-30T01:57:21.764Z,15.73
2024-04-30T01:59:28.644Z,15.20
2024-04-30T02:01:35.626Z,15.06
2024-04-30T02:03:42.542Z,16.39
2024-04-30T02:05:49.558Z,17.80
2024-04-30T02:07:56.383Z,18.51
2024-04-30T02:10:03.252Z,17.94
2024-04-30T02:12:10.297Z,16.97
2024-04-30T02:14:17.181Z,16.13
2024-04-30T02:16:24.052Z,15.45
2024-04-30T02:18:31.010Z,14.90
2024-04-30T02:20:37.859Z,14.83
2024-04-30T02:22:44.775Z,16.35
2024-04-30T02:24:51.656Z,17.79
2024-04-30T02:26:58.590Z,18.23
2024-04-30T02:29:05.470Z,17.47
2024-04-30T02:31:32.482Z,16.49
2024-04-30T02:33:57.261Z,15.59
2024-04-30T02:36:08.048Z,14.91
2024-04-30T02:38:14.940Z,14.75
2024-04-30T02:40:21.801Z,16.18
2024-04-30T02:42:28.679Z,17.57
2024-04-30T02:44:35.605Z,18.17
2024-04-30T02:46:42.863Z,17.57
2024-04-30T02:48:49.789Z,16.52
2024-04-30T02:50:56.628Z,15.64
2024-04-30T02:53:03.466Z,14.97
2024-04-30T02:55:10.563Z,14.41
2024-04-30T02:57:17.468Z,14.29
2024-04-30T02:59:24.368Z,15.65
2024-04-30T03:01:31.411Z,17.10
2024-04-30T03:03:38.431Z,17.80
2024-04-30T03:05:45.312Z,17.17
2024-04-30T03:07:52.191Z,16.19
2024-04-30T03:09:59.110Z,15.34
2024-04-30T03:12:06.897Z,14.68
2024-04-30T03:14:14.024Z,14.13
2024-04-30T03:16:20.950Z,14.06
2024-04-30T03:18:27.898Z,15.58
2024-04-30T03:20:34.936Z,17.06
2024-04-30T03:22:42.028Z,17.77
2024-04-30T03:24:48.998Z,17.16
2024-04-30T03:26:56.101Z,16.15
2024-04-30T03:29:03.040Z,15.29
2024-04-30T03:31:14.986Z,14.60
2024-04-30T03:33:21.960Z,14.07
2024-04-30T03:35:28.891Z,14.87
2024-04-30T03:37:35.783Z,16.41
2024-04-30T03:39:42.715Z,17.43
2024-04-30T03:41:49.575Z,17.33
2024-04-30T03:43:56.614Z,16.68
2024-04-30T03:46:03.486Z,15.66
2024-04-30T03:48:10.603Z,14.83
2024-04-30T03:50:17.518Z,14.17
2024-04-30T03:52:24.517Z,14.08
2024-04-30T03:54:31.415Z,15.50
2024-04-30T03:56:38.313Z,16.91
2024-04-30T03:58:45.316Z,17.77
2024-04-30T04:00:52.229Z,17.49
2024-04-30T04:02:59.137Z,16.49
2024-04-30T04:05:06.780Z,15.61
2024-04-30T04:07:13.731Z,14.84
2024-04-30T04:09:20.895Z,14.28
2024-04-30T04:11:46.001Z,14.20
2024-04-30T04:14:10.733Z,15.99
2024-04-30T04:16:17.604Z,17.50
2024-04-30T04:18:24.607Z,18.15
2024-04-30T04:20:31.512Z,17.59
2024-04-30T04:22:38.406Z,16.61
2024-04-30T04:24:45.283Z,15.81
2024-04-30T04:26:52.140Z,15.17
2024-04-30T04:28:58.972Z,15.04
2024-04-30T04:31:06.101Z,16.41
2024-04-30T04:33:13.093Z,17.84
2024-04-30T04:35:19.974Z,18.68
2024-04-30T04:37:27.636Z,18.32
2024-04-30T04:39:34.778Z,17.42
2024-04-30T04:41:41.693Z,16.60
2024-04-30T04:43:48.644Z,15.99
2024-04-30T04:45:55.519Z,15.84
2024-04-30T04:48:03.191Z,17.17
2024-04-30T04:50:10.801Z,18.60
2024-04-30T04:52:17.795Z,19.51
2024-04-30T04:54:24.717Z,19.26
2024-04-30T04:56:31.578Z,18.32
2024-04-30T04:58:38.484Z,17.49
2024-04-30T05:00:45.317Z,16.82
2024-04-30T05:02:52.697Z,16.67
2024-04-30T05:05:00.120Z,18.00
2024-04-30T05:07:07.391Z,19.40
2024-04-30T05:09:14.269Z,20.06
2024-04-30T05:11:21.324Z,19.53
2024-04-30T05:13:28.251Z,18.68
2024-04-30T05:15:35.121Z,18.00
2024-04-30T05:17:42.100Z,17.51
2024-04-30T05:19:49.080Z,17.12
2024-04-30T05:21:55.953Z,17.17
2024-04-30T05:24:02.835Z,18.61
2024-04-30T05:26:09.705Z,20.09
2024-04-30T05:28:16.635Z,20.51
2024-04-30T05:30:23.969Z,19.79
2024-04-30T05:32:30.939Z,19.01
2024-04-30T05:34:37.843Z,18.37
2024-04-30T05:36:44.787Z,17.93
2024-04-30T05:38:54.520Z,17.58
2024-04-30T05:41:01.587Z,17.72
2024-04-30T05:43:11.688Z,19.02
2024-04-30T05:45:18.627Z,20.24
2024-04-30T05:47:53.430Z,20.05
2024-04-30T05:50:16.432Z,19.34
2024-04-30T05:52:24.086Z,18.72
2024-04-30T05:54:31.009Z,18.32
2024-04-30T05:56:37.864Z,18.44
2024-04-30T05:58:44.772Z,19.90
2024-04-30T06:00:51.693Z,20.98
2024-04-30T06:03:01.672Z,20.81
2024-04-30T06:05:11.768Z,20.21
2024-04-30T06:07:18.810Z,19.70
2024-04-30T06:09:25.658Z,19.29
2024-04-30T06:11:32.750Z,19.04
2024-04-30T06:13:39.700Z,18.84
2024-04-30T06:15:46.572Z,19.12
2024-04-30T06:17:53.579Z,20.60
2024-04-30T06:20:00.696Z,22.00
2024-04-30T06:22:07.960Z,21.97
2024-04-30T06:24:14.965Z,21.45
2024-04-30T06:26:21.847Z,20.95
2024-04-30T06:28:30.286Z,20.62
2024-04-30T06:30:38.216Z,20.41
2024-04-30T06:32:45.185Z,20.27
2024-04-30T06:34:52.456Z,20.17
2024-04-30T06:36:59.570Z,20.11
2024-04-30T06:39:06.513Z,20.06
2024-04-30T06:41:15.102Z,20.05
2024-04-30T06:43:22.762Z,20.07
2024-04-30T06:45:29.707Z,20.12
2024-04-30T06:47:36.695Z,20.17
2024-04-30T06:49:43.610Z,20.24
2024-04-30T06:51:50.482Z,20.34
2024-04-30T06:53:57.374Z,20.44
2024-04-30T06:56:04.581Z,20.53
2024-04-30T06:58:15.297Z,20.64
2024-04-30T07:00:22.475Z,20.75
2024-04-30T07:02:29.432Z,20.87
2024-04-30T07:04:36.442Z,20.99
2024-04-30T07:06:43.422Z,21.10
2024-04-30T07:08:50.291Z,21.23
2024-04-30T07:10:59.732Z,21.38
2024-04-30T07:13:09.978Z,21.51
2024-04-30T07:15:18.194Z,21.66
2024-04-30T07:17:25.120Z,21.78
2024-04-30T07:19:32.635Z,21.93
2024-04-30T07:21:41.784Z,22.11
2024-04-30T07:23:48.966Z,22.30
2024-04-30T07:25:55.803Z,22.47
2024-04-30T07:28:02.708Z,22.65
2024-04-30T07:30:10.669Z,22.79
2024-04-30T07:32:17.637Z,22.95
2024-04-30T07:34:24.654Z,23.09
2024-04-30T07:36:31.605Z,23.22
2024-04-30T07:38:38.515Z,23.37
2024-04-30T07:40:45.742Z,23.53
2024-04-30T07:42:52.811Z,23.69
2024-04-30T07:44:59.706Z,23.84
2024-04-30T07:47:06.984Z,23.99
2024-04-30T07:49:13.894Z,24.17
2024-04-30T07:51:20.812Z,24.31
2024-04-30T07:53:27.679Z,24.45
2024-04-30T07:55:35.066Z,24.58
2024-04-30T07:57:42.057Z,24.72
2024-04-30T07:59:48.922Z,24.85
2024-04-30T08:01:55.795Z,25.00
2024-04-30T08:04:02.961Z,25.12
2024-04-30T08:06:14.785Z,25.28
2024-04-30T08:08:27.325Z,25.41
2024-04-30T08:10:34.253Z,25.52
2024-04-30T08:12:41.137Z,25.66
2024-04-30T08:14:48.013Z,25.76
2024-04-30T08:16:54.948Z,25.86
2024-04-30T08:19:01.863Z,25.96
2024-04-30T08:21:09.318Z,26.07
2024-04-30T08:23:16.198Z,26.17
2024-04-30T08:25:23.135Z,26.24
2024-04-30T08:27:30.093Z,26.25
2024-04-30T08:29:37.031Z,26.29
2024-04-30T08:31:44.086Z,26.36
2024-04-30T08:33:51.124Z,26.42
2024-04-30T08:35:58.111Z,26.48
2024-04-30T08:38:09.313Z,26.47
2024-04-30T08:40:16.452Z,26.51
2024-04-30T08:42:24.208Z,26.60
2024-04-30T08:44:33.363Z,26.73
2024-04-30T08:46:43.349Z,26.75
2024-04-30T08:48:53.276Z,26.75
2024-04-30T08:51:00.908Z,26.78
2024-04-30T08:53:09.666Z,26.88
2024-04-30T08:55:20.373Z,26.92
2024-04-30T08:57:27.502Z,26.93
2024-04-30T08:59:34.637Z,27.01
2024-04-30T09:01:42.469Z,27.06
2024-04-30T09:03:50.838Z,27.11
2024-04-30T09:05:58.021Z,27.19
2024-04-30T09:08:05.943Z,27.27
2024-04-30T09:10:12.971Z,27.33
2024-04-30T09:12:20.029Z,27.36
2024-04-30T09:14:26.952Z,27.37
2024-04-30T09:16:34.026Z,27.39
2024-04-30T09:18:51.071Z,27.37
2024-04-30T09:21:07.966Z,27.38
2024-04-30T09:23:30.167Z,27.44
2024-04-30T09:25:37.960Z,27.44
2024-04-30T09:27:45.458Z,27.49
2024-04-30T09:29:52.494Z,27.57
2024-04-30T09:31:59.394Z,27.71
2024-04-30T09:34:06.313Z,27.74
2024-04-30T09:36:15.858Z,27.76
2024-04-30T09:38:24.052Z,27.84
2024-04-30T09:40:31.707Z,28.01
2024-04-30T09:42:41.174Z,28.02
2024-04-30T09:44:50.864Z,28.18
2024-04-30T09:46:58.295Z,28.26
2024-04-30T09:49:08.520Z,28.20
2024-04-30T09:51:16.435Z,28.24
2024-04-30T09:53:24.962Z,28.26
2024-04-30T09:55:33.291Z,28.33
2024-04-30T09:57:41.955Z,28.37
2024-04-30T09:59:48.850Z,28.33
2024-04-30T10:01:57.103Z,28.33
2024-04-30T10:04:05.978Z,28.37
2024-04-30T10:06:15.366Z,28.44
2024-04-30T10:08:23.268Z,28.47
2024-04-30T10:10:31.614Z,28.45
2024-04-30T10:12:38.487Z,28.46
2024-04-30T10:14:45.315Z,28.53
2024-04-30T10:17:00.997Z,28.56
2024-04-30T10:19:08.460Z,28.68
2024-04-30T10:21:15.520Z,28.80
2024-04-30T10:23:32.632Z,28.91
2024-04-30T10:25:39.631Z,28.99
2024-04-30T10:27:46.711Z,29.00
2024-04-30T10:29:54.119Z,28.90
2024-04-30T10:32:04.999Z,28.87
2024-04-30T10:34:13.234Z,28.94
2024-04-30T10:36:20.185Z,29.06
2024-04-30T10:38:27.132Z,29.11
2024-04-30T10:40:34.100Z,29.08
2024-04-30T10:42:41.240Z,29.05
2024-04-30T10:44:48.085Z,29.06
2024-04-30T10:46:58.675Z,29.08
2024-04-30T10:49:07.590Z,29.05
2024-04-30T10:51:15.300Z,29.10
2024-04-30T10:53:22.549Z,29.18
2024-04-30T10:55:30.585Z,29.27
2024-04-30T10:57:38.783Z,29.30
2024-04-30T10:59:45.697Z,29.36
2024-04-30T11:01:52.542Z,29.44
2024-04-30T11:04:08.530Z,29.39
2024-04-30T11:06:16.192Z,29.34
2024-04-30T11:08:26.804Z,29.33
2024-04-30T11:10:34.859Z,29.36
2024-04-30T11:12:42.038Z,29.44
2024-04-30T11:14:49.440Z,29.50
2024-04-30T11:16:57.322Z,29.44
2024-04-30T11:19:04.226Z,29.52
2024-04-30T11:21:12.189Z,29.59
2024-04-30T11:23:19.032Z,29.58
2024-04-30T11:25:26.049Z,29.49
2024-04-30T11:27:32.942Z,29.54
2024-04-30T11:29:40.601Z,29.63
2024-04-30T11:31:47.762Z,29.49
2024-04-30T11:33:55.097Z,29.49
2024-04-30T11:36:01.956Z,29.50
2024-04-30T11:38:08.971Z,29.56
2024-04-30T11:40:16.065Z,29.46
2024-04-30T11:42:27.591Z,29.50
2024-04-30T11:44:41.197Z,29.42
2024-04-30T11:46:48.075Z,29.41
2024-04-30T11:48:55.375Z,29.44
2024-04-30T11:51:02.355Z,29.47
2024-04-30T11:53:09.447Z,29.50
2024-04-30T11:55:16.570Z,29.54
2024-04-30T11:57:23.464Z,29.65
2024-04-30T11:59:30.317Z,29.61
2024-04-30T12:01:37.179Z,29.80
2024-04-30T12:03:44.199Z,29.72
2024-04-30T12:05:51.069Z,29.65
2024-04-30T12:07:57.935Z,29.68
2024-04-30T12:10:10.045Z,29.64
2024-04-30T12:12:17.001Z,29.68
2024-04-30T12:14:23.873Z,29.78
2024-04-30T12:16:30.872Z,29.85
2024-04-30T12:18:37.888Z,29.77
2024-04-30T12:20:44.762Z,29.73
2024-04-30T12:22:51.666Z,29.78
2024-04-30T12:24:58.573Z,29.82
2024-04-30T12:27:05.812Z,29.83
2024-04-30T12:29:12.744Z,29.81
2024-04-30T12:31:19.630Z,29.86
2024-04-30T12:33:28.004Z,29.94
2024-04-30T12:35:36.319Z,29.96
2024-04-30T12:37:43.301Z,29.98
2024-04-30T12:39:51.917Z,30.11
2024-04-30T12:41:58.872Z,30.21
2024-04-30T12:44:05.939Z,30.27
2024-04-30T12:46:12.820Z,30.24
2024-04-30T12:48:19.966Z,30.23
2024-04-30T12:50:27.054Z,30.14
2024-04-30T12:52:34.021Z,30.15
2024-04-30T12:54:40.929Z,30.21
2024-04-30T12:56:47.772Z,30.17
2024-04-30T12:58:54.923Z,30.22
2024-04-30T13:01:01.869Z,30.19
2024-04-30T13:03:09.178Z,30.18
2024-04-30T13:05:16.254Z,30.15
2024-04-30T13:07:23.253Z,30.13
2024-04-30T13:09:32.423Z,30.11
2024-04-30T13:11:40.241Z,30.07
2024-04-30T13:13:47.246Z,30.06
2024-04-30T13:15:54.498Z,30.07
2024-04-30T13:18:01.392Z,30.03
2024-04-30T13:20:09.943Z,30.03
2024-04-30T13:22:16.857Z,29.93
2024-04-30T13:24:23.794Z,29.97
2024-04-30T13:26:30.810Z,29.97
2024-04-30T13:28:37.777Z,29.94
2024-04-30T13:30:44.807Z,29.92
2024-04-30T13:32:51.749Z,29.86
2024-04-30T13:34:58.734Z,29.87
2024-04-30T13:37:05.783Z,29.80
2024-04-30T13:39:15.306Z,29.72
2024-04-30T13:41:22.361Z,29.80
2024-04-30T13:43:29.359Z,29.85
2024-04-30T13:45:36.251Z,29.90
2024-04-30T13:47:43.202Z,29.87
2024-04-30T13:49:50.202Z,29.81
2024-04-30T13:51:57.176Z,29.80
2024-04-30T13:54:04.361Z,29.77
2024-04-30T13:56:14.453Z,29.75
2024-04-30T13:58:21.348Z,29.75
2024-04-30T14:00:28.359Z,29.75
2024-04-30T14:02:35.222Z,29.69
2024-04-30T14:04:42.488Z,29.71
2024-04-30T14:06:49.412Z,29.65
2024-04-30T14:08:56.600Z,29.61
2024-04-30T14:11:04.270Z,29.60
2024-04-30T14:13:11.629Z,29.53
2024-04-30T14:15:18.624Z,29.49
2024-04-30T14:17:25.519Z,29.50
2024-04-30T14:19:34.857Z,29.54
2024-04-30T14:21:42.172Z,29.62
2024-04-30T14:23:49.039Z,29.65
2024-04-30T14:25:55.982Z,29.68
2024-04-30T14:28:02.836Z,29.65
2024-04-30T14:30:11.713Z,29.68
2024-04-30T14:32:18.625Z,29.63
2024-04-30T14:34:26.359Z,29.53
2024-04-30T14:36:36.005Z,29.46
2024-04-30T14:38:44.100Z,29.45
2024-04-30T14:40:51.011Z,29.47
2024-04-30T14:42:57.882Z,29.43
2024-04-30T14:45:05.035Z,29.48
2024-04-30T14:47:11.910Z,29.49
2024-04-30T14:49:20.618Z,29.46
2024-04-30T14:51:34.748Z,29.46
2024-04-30T14:53:41.615Z,29.43
2024-04-30T14:55:48.530Z,29.41
2024-04-30T14:57:55.516Z,29.38
2024-04-30T15:00:02.507Z,29.32
2024-04-30T15:02:09.518Z,29.31
2024-04-30T15:04:16.631Z,29.24
2024-04-30T15:06:24.024Z,29.21
2024-04-30T15:08:31.009Z,29.23
2024-04-30T15:10:37.978Z,29.25
2024-04-30T15:12:44.852Z,29.21
2024-04-30T15:14:52.774Z,29.18
2024-04-30T15:16:59.775Z,29.22
2024-04-30T15:19:07.021Z,29.20
2024-04-30T15:21:14.148Z,29.20
2024-04-30T15:23:21.026Z,29.17
2024-04-30T15:25:29.419Z,29.14
2024-04-30T15:27:36.930Z,29.10
2024-04-30T15:29:43.790Z,29.07
2024-04-30T15:31:51.544Z,28.95
2024-04-30T15:33:58.441Z,28.90
2024-04-30T15:36:07.934Z,28.82
2024-04-30T15:38:15.853Z,28.75
2024-04-30T15:40:22.731Z,28.66
2024-04-30T15:42:29.652Z,28.57
2024-04-30T15:44:36.505Z,28.50
2024-04-30T15:46:43.761Z,28.44
2024-04-30T15:48:52.385Z,28.37
2024-04-30T15:51:04.040Z,28.29
2024-04-30T15:53:10.951Z,28.18
2024-04-30T15:55:18.019Z,28.09
2024-04-30T15:57:24.931Z,28.02
2024-04-30T15:59:33.110Z,27.91
2024-04-30T16:01:40.067Z,27.88
2024-04-30T16:03:46.938Z,27.79
2024-04-30T16:05:53.859Z,27.68
2024-04-30T16:08:00.702Z,27.63
2024-04-30T16:10:08.706Z,27.60
2024-04-30T16:12:15.637Z,27.56
2024-04-30T16:14:24.356Z,27.48
2024-04-30T16:16:31.333Z,27.43
2024-04-30T16:18:39.921Z,27.40
2024-04-30T16:20:46.835Z,27.38
2024-04-30T16:22:53.738Z,27.34
2024-04-30T16:25:00.591Z,27.32
2024-04-30T16:27:07.727Z,27.29
2024-04-30T16:29:14.806Z,27.22
2024-04-30T16:31:21.844Z,27.17
2024-04-30T16:33:29.625Z,27.14
2024-04-30T16:35:36.494Z,27.11
2024-04-30T16:37:43.313Z,27.06
2024-04-30T16:39:51.096Z,27.00
2024-04-30T16:41:58.093Z,26.94
2024-04-30T16:44:05.205Z,26.89
2024-04-30T16:46:12.146Z,26.84
2024-04-30T16:48:19.091Z,26.80
2024-04-30T16:50:26.209Z,26.75
2024-04-30T16:52:33.169Z,26.72
2024-04-30T16:54:40.052Z,26.70
2024-04-30T16:56:46.932Z,26.65
2024-04-30T16:58:54.219Z,26.61
2024-04-30T17:01:01.298Z,26.56
2024-04-30T17:03:10.400Z,26.52
2024-04-30T17:05:18.297Z,26.50
2024-04-30T17:07:25.256Z,26.44
2024-04-30T17:09:32.182Z,26.39
2024-04-30T17:11:42.951Z,26.32
2024-04-30T17:13:49.852Z,26.26
2024-04-30T17:15:56.786Z,26.20
2024-04-30T17:18:03.755Z,26.14
2024-04-30T17:20:11.324Z,26.07
2024-04-30T17:22:18.197Z,26.00
2024-04-30T17:24:25.154Z,25.92
2024-04-30T17:26:32.145Z,25.84
2024-04-30T17:28:41.060Z,25.77
2024-04-30T17:30:47.973Z,25.68
2024-04-30T17:32:54.976Z,25.61
2024-04-30T17:35:02.591Z,25.52
2024-04-30T17:37:09.534Z,25.45
2024-04-30T17:39:17.054Z,25.38
2024-04-30T17:41:27.210Z,25.30
2024-04-30T17:43:34.248Z,25.22
2024-04-30T17:45:41.238Z,25.14
2024-04-30T17:47:48.263Z,25.05
2024-04-30T17:49:56.233Z,24.94
2024-04-30T17:52:03.185Z,24.82
2024-04-30T17:54:10.049Z,24.67
2024-04-30T17:56:17.509Z,24.51
2024-04-30T17:58:24.499Z,24.35
2024-04-30T18:00:31.451Z,24.17
2024-04-30T18:02:38.389Z,24.00
2024-04-30T18:04:46.088Z,23.82
2024-04-30T18:06:53.282Z,23.65
2024-04-30T18:09:00.304Z,23.47
2024-04-30T18:11:12.903Z,23.29
2024-04-30T18:13:19.828Z,23.10
2024-04-30T18:15:26.779Z,22.91
2024-04-30T18:17:33.812Z,22.73
2024-04-30T18:19:42.100Z,22.56
2024-04-30T18:21:49.002Z,22.39
2024-04-30T18:23:56.106Z,22.21
2024-04-30T18:26:03.743Z,22.03
2024-04-30T18:28:10.609Z,21.84
2024-04-30T18:30:17.920Z,21.67
2024-04-30T18:32:24.918Z,21.50
2024-04-30T18:34:32.120Z,21.35
2024-04-30T18:36:41.984Z,21.20
2024-04-30T18:38:48.944Z,21.05
2024-04-30T18:40:55.845Z,20.90
2024-04-30T18:43:02.867Z,20.76
2024-04-30T18:45:09.967Z,20.63
2024-04-30T18:47:16.887Z,20.50
2024-04-30T18:49:23.806Z,20.39
2024-04-30T18:51:30.783Z,20.26
2024-04-30T18:53:37.725Z,20.14
2024-04-30T18:55:44.572Z,20.01
2024-04-30T18:57:51.517Z,19.90
2024-04-30T18:59:58.588Z,19.78
2024-04-30T19:02:06.261Z,19.66
2024-04-30T19:04:13.234Z,19.55
2024-04-30T19:06:21.110Z,19.44
2024-04-30T19:08:29.813Z,19.34
2024-04-30T19:10:37.521Z,19.22
2024-04-30T19:12:44.462Z,19.11
2024-04-30T19:14:51.305Z,18.97
2024-04-30T19:17:00.337Z,18.82
2024-04-30T19:19:07.371Z,18.69
2024-04-30T19:21:15.090Z,18.60
2024-04-30T19:23:29.838Z,18.51
2024-04-30T19:25:36.753Z,18.42
2024-04-30T19:27:43.662Z,18.33
2024-04-30T19:29:50.546Z,18.25
2024-04-30T19:31:57.422Z,18.16
2024-04-30T19:34:04.846Z,18.08
2024-04-30T19:36:19.206Z,18.02
2024-04-30T19:38:26.268Z,17.93
2024-04-30T19:40:33.242Z,17.84
2024-04-30T19:42:40.116Z,17.75
2024-04-30T19:44:47.041Z,17.66
2024-04-30T19:46:53.907Z,17.58
2024-04-30T19:49:01.196Z,17.51
2024-04-30T19:51:08.413Z,17.44
2024-04-30T19:53:15.408Z,17.37
2024-04-30T19:55:22.256Z,17.31
2024-04-30T19:57:29.163Z,17.25
2024-04-30T19:59:36.086Z,17.18
2024-04-30T20:01:43.723Z,17.12
2024-04-30T20:03:50.683Z,17.06
2024-04-30T20:05:57.673Z,16.99
2024-04-30T20:08:04.805Z,16.93
2024-04-30T20:10:11.764Z,16.87
2024-04-30T20:12:18.692Z,16.82
2024-04-30T20:14:25.659Z,16.75
2024-04-30T20:16:32.770Z,16.70
2024-04-30T20:18:39.673Z,16.64
2024-04-30T20:20:46.527Z,16.58
2024-04-30T20:22:53.422Z,16.52
2024-04-30T20:25:00.396Z,16.48
2024-04-30T20:27:07.543Z,16.42
2024-04-30T20:29:14.451Z,16.38
2024-04-30T20:31:21.276Z,16.34
2024-04-30T20:33:28.400Z,16.30
2024-04-30T20:35:35.290Z,16.26
2024-04-30T20:37:42.144Z,16.21
2024-04-30T20:39:49.147Z,16.17
2024-04-30T20:41:56.152Z,16.14
2024-04-30T20:44:03.070Z,16.10
2024-04-30T20:46:10.014Z,16.04
2024-04-30T20:48:17.495Z,15.99
2024-04-30T20:50:24.579Z,15.94
2024-04-30T20:52:31.378Z,15.91
2024-04-30T20:54:39.571Z,15.86
2024-04-30T20:56:46.479Z,15.83
2024-04-30T20:58:53.343Z,15.77
2024-04-30T21:01:00.234Z,15.72
2024-04-30T21:03:08.147Z,15.68
2024-04-30T21:05:15.563Z,15.64
2024-04-30T21:07:22.502Z,15.60
2024-04-30T21:09:29.390Z,15.57
2024-04-30T21:11:36.311Z,15.54
2024-04-30T21:13:43.586Z,15.48
2024-04-30T21:15:50.554Z,15.44
2024-04-30T21:17:57.507Z,15.39
2024-04-30T21:20:04.801Z,15.39
2024-04-30T21:22:11.742Z,16.42
2024-04-30T21:24:18.625Z,18.26
2024-04-30T21:26:26.028Z,19.65
2024-04-30T21:28:32.915Z,20.28
2024-04-30T21:30:41.217Z,19.74
2024-04-30T21:32:48.168Z,18.93
2024-04-30T21:34:55.514Z,18.28
2024-04-30T21:37:02.448Z,17.79
2024-04-30T21:39:10.491Z,17.39
2024-04-30T21:41:17.722Z,17.07
2024-04-30T21:43:24.666Z,16.78
2024-04-30T21:45:31.564Z,16.52
2024-04-30T21:47:38.402Z,16.27
2024-04-30T21:49:45.320Z,16.06
2024-04-30T21:51:52.255Z,15.87
2024-04-30T21:53:59.185Z,15.68
2024-04-30T21:56:06.564Z,15.51
2024-04-30T21:58:13.411Z,15.35
2024-04-30T22:00:20.617Z,15.21
2024-04-30T22:02:27.531Z,15.09
2024-04-30T22:04:35.981Z,14.99
2024-04-30T22:06:43.008Z,14.90
2024-04-30T22:08:51.297Z,14.82
2024-04-30T22:10:58.204Z,14.96
2024-04-30T22:13:05.695Z,16.48
2024-04-30T22:15:12.632Z,18.17
2024-04-30T22:17:19.581Z,19.16
2024-04-30T22:19:28.849Z,18.77
2024-04-30T22:21:35.813Z,17.98
2024-04-30T22:23:42.768Z,17.32
2024-04-30T22:25:49.748Z,16.82
2024-04-30T22:27:57.176Z,16.42
2024-04-30T22:30:13.020Z,16.08
2024-04-30T22:32:26.597Z,15.76
2024-04-30T22:34:33.656Z,15.52
2024-04-30T22:36:40.719Z,15.30
2024-04-30T22:38:47.564Z,15.10
2024-04-30T22:40:55.948Z,14.91
2024-04-30T22:43:02.934Z,14.74
2024-04-30T22:45:10.078Z,14.85
2024-04-30T22:47:17.609Z,16.35
2024-04-30T22:49:24.913Z,17.99
2024-04-30T22:51:32.074Z,18.94
2024-04-30T22:53:47.432Z,18.52
2024-04-30T22:55:58.428Z,17.64
2024-04-30T22:58:05.588Z,16.92
2024-04-30T23:00:14.228Z,16.37
2024-04-30T23:02:21.115Z,15.94
2024-04-30T23:04:28.206Z,15.60
2024-04-30T23:06:35.299Z,15.30
2024-04-30T23:08:42.278Z,15.05
2024-04-30T23:10:49.419Z,14.83
2024-04-30T23:12:56.397Z,14.62
2024-04-30T23:15:03.373Z,14.69
2024-04-30T23:17:10.253Z,16.24
2024-04-30T23:19:17.432Z,17.88
2024-04-30T23:21:26.323Z,18.60
2024-04-30T23:23:33.499Z,18.12
2024-04-30T23:25:40.876Z,17.28
2024-04-30T23:27:50.531Z,16.60
2024-04-30T23:29:57.848Z,16.09
2024-04-30T23:32:04.957Z,15.68
2024-04-30T23:34:12.075Z,15.35
2024-04-30T23:36:18.973Z,15.06
2024-04-30T23:38:25.853Z,14.80
2024-04-30T23:40:32.772Z,14.58
2024-04-30T23:42:41.101Z,14.37
2024-04-30T23:44:48.037Z,14.47
2024-04-30T23:46:55.033Z,16.05
2024-04-30T23:49:01.936Z,17.67
2024-04-30T23:51:13.665Z,18.52
2024-04-30T23:53:20.580Z,18.05
2024-04-30T23:55:27.691Z,17.20
2024-04-30T23:57:34.584Z,16.49
2024-04-30T23:59:43.343Z,15.93
